AirNav   Duncan Aviation - Near you to keep you flying
 
 620 users online  

PS01 Sterling Heliport
Croydon, Pennsylvania, USA

GOING TO CROYDON?


FAA INFORMATION EFFECTIVE 01 DECEMBER 2022

Location

FAA Identifier: PS01
Lat/Long: 40-04-52.6000N 074-53-39.2000W
40-04.876667N 074-53.653333W
40.0812778,-74.8942222
(estimated)
Elevation: 24 ft. / 7 m (estimated)
From city: 1 mile SE of CROYDON, PA
Time zone: UTC -5 (UTC -4 during Daylight Saving Time)
Zip code: 19021

Heliport Operations

Heliport use: Private use. Permission required prior to landing
Activation date: 10/2006
Control tower: no
ARTCC: NEW YORK CENTER
FSS: WILLIAMSPORT FLIGHT SERVICE STATION
Attendance: MON-FRI 0800-1700
Wind indicator: yes
Segmented circle: no

Heliport Communications

WX ASOS at PNE (5 nm W): PHONE 215-677-0146
WX ASOS at VAY (9 nm S): 119.325 (609-267-1176)
WX ASOS at TTN (12 nm N): 126.775 (609-538-8690)
WX AWOS-3 at LOM (17 nm W): 118.925 (215-646-1068)
WX ASOS at DYL (18 nm NW): 118.875 (215-345-0392)

Nearby radio navigation aids

VOR radial/distance  VOR name  Freq  Var
ARDr187/10.3YARDLEY VOR/DME108.2010W
GXUr299/14.3MC GUIRE VORTAC110.6012W
RBVr258/19.7ROBBINSVILLE VORTAC113.8010W
CYNr317/26.5COYLE VORTAC113.4010W
SBJr203/30.9SOLBERG VOR/DME112.9010W
PTWr114/31.7POTTSTOWN VORTAC116.5009W
OODr045/32.7WOODSTOWN VORTAC112.8010W
VCNr016/32.8CEDAR LAKE VOR/DME115.2010W
COLr259/36.4COLTS NECK VOR/DME115.4011W
MXEr084/37.0MODENA VORTAC113.2009W

 
NDB name  Hdg/Dist  Freq  Var  ID
LAKEHURST286/25.839611WNEL -. . .-..

Heliport Services

Airframe service: MAJOR
Powerplant service: MAJOR

Runway Information

Helipad H1

Dimensions: 50 x 50 ft. / 15 x 15 m
Surface: concrete, in good condition
Traffic pattern: leftleft

Heliport Ownership and Management from official FAA records

Ownership: Privately-owned
Owner: STERLING HELICOPTER
1226 RIVER ROAD
CROYDON, PA 19021
Phone 215-271-2510
Manager: PHIL BIDDEN
1226 RIVER ROAD
CROYDON, PA 19021
Phone 215-271-2510

Additional Remarks

CALL PRIOR TO USE FOR PERMISSION, NOISE ABATEMENT PROC & PREF FLT ROUTE.
AVOID OVR FLT OF HOMES & SCHOOL 0.5 NM NE.
FOR CD CTC PHILADELPHIA APCH AT 800-354-9884.
FATO 80 FT BY 80 FT.

Instrument Procedures

There are no published instrument procedures at PS01.

Some nearby airports with instrument procedures:

KPNE - Northeast Philadelphia Airport (5 nm W)
KVAY - South Jersey Regional Airport (9 nm S)
N14 - Flying W Airport (10 nm SE)
KTTN - Trenton Mercer Airport (12 nm N)
KWRI - McGuire Field (Joint Base Mc Guire Dix Lakehurst) Airport (14 nm E)
N87 - Trenton-Robbinsville Airport (16 nm NE)
KLOM - Wings Field Airport (17 nm W)
19N - Camden County Airport (18 nm S)
KDYL - Doylestown Airport (18 nm NW)
 
Loc | Ops | Rwys | IFR | FBO | Links
Com | Nav | Svcs | Stats | Notes
Area around PS01 (Sterling Heliport)
 
Road maps at: MapQuest Bing Google
 
Aerial photo
No photo
 
Sectional chart

 
Airport distance calculator
Flying to Sterling Heliport? Find the distance to fly.

From to PS01

Sunrise and sunset
Times for 07-Dec-2022
 Local
(UTC-5)
 Zulu
(UTC)
Morning civil twilight06:3911:39
Sunrise07:0912:09
Sunset16:3321:33
Evening civil twilight17:0322:03

Current date and time
Zulu (UTC)  07-Dec-2022 09:56:47
Local (UTC-5)  07-Dec-2022 04:56:47
 
METAR
KPNE 
6nm W 
070937Z AUTO 22004KT 4SM BR SCT004 OVC015 12/11 A3021 RMK AO2 RAB0858E24 P0001 T01220111
KVAY 
9nm S 
ASOS 119.325 609-267-1176
070854Z AUTO 26004KT 4SM BR OVC004 13/12 A3020 RMK AO2 RAE11B43E52 SLP226 P0002 60004 T01330122 50000
KTTN 
13nm N 
ASOS 133.70 609-538-8690
070923Z AUTO 23003KT 5SM -RA BR FEW007 OVC011 12/12 A3019 RMK AO2 P0001 T01220122
KWRI 
15nm E 
070930Z 23007KT 5SM -RA BR OVC003 15/14 A3019 RMK AO2A RAB09 SLP223
KLOM 
17nm W 
070935Z AUTO 17003KT 5SM -RA OVC003 11/ A3019 RMK AO2 T0113////
KDYL 
18nm NW 
070906Z AUTO VRB04KT -RA BKN005 OVC015 12/11 A3018 RMK AO2 P0001 T01220106 $
TAF
KPNE 
6nm W 
070529Z 0706/0806 20005KT 3SM -DZ BR OVC003 TEMPO 0706/0710 2SM -RA BR OVC002 FM071000 VRB04KT 1SM -DZ BR VCSH OVC003 FM071600 21005KT 3SM -DZ BR VCSH OVC003 FM080200 32007KT 3SM BR BKN008
KTTN 
13nm N 
070529Z 0706/0806 VRB04KT 3SM -DZ BR VCSH OVC004 TEMPO 0706/0710 2SM -RA BR OVC003 FM071000 VRB04KT 1SM -DZ BR VCSH OVC003 FM071800 VRB04KT 3SM -DZ BR OVC003 FM080200 32007KT 1SM BR OVC008
KWRI 
15nm E 
070200Z 0702/0808 17009KT 9000 -RA BR OVC005 QNH3019INS TEMPO 0703/0706 6000 BR OVC007 BECMG 0706/0707 16006KT 4800 -RA BR OVC003 QNH3015INS BECMG 0713/0714 22005KT 8000 BR OVC005 QNH3013INS BECMG 0718/0719 26005KT 9999 NSW OVC008 QNH3010INS BECMG 0723/0724 27005KT 4800 BR BKN005 QNH3010INS BECMG 0806/0807 32006KT 9999 NSW BKN010 QNH3014INS TX15/0718Z TN12/0710Z
NOTAMs
Click for the latest NOTAMs
NOTAMs are issued by the DoD/FAA and will open in a separate window not controlled by AirNav.

 

 
 

Would you like to see your business listed on this page?

 If your business provides an interesting product or service to pilots, flight crews, aircraft, or users of the Sterling Heliport, you should consider listing it here.  To start the listing process, click on the button below
 
Add a business
 

Other Pages about Sterling Heliport

Update a link
 
Copyright © AirNav, LLC. All rights reserved. Privacy Policy  Contact